Time;durP1;ratioP1;P1;durP2;ratioP2;P2;SDS_P1;SDS_P2;PMS_P1;PMS_P2;Temp;Humidity;BMP_temperature;BMP_pressure;BME280_temperature;BME280_humidity;BME280_pressure;Samples;Min_cycle;Max_cycle;Signal;HPM_P1;HPM_P2
2023/04/08 00:02:09;;;;;;;65.77;40.90;;;;;;;6.86;100.00;100914.09;126021;1099;101638;-79
2023/04/08 00:04:42;;;;;;;75.60;45.27;;;;;;;6.86;100.00;100913.17;124820;1099;102241;-79
2023/04/08 00:07:14;;;;;;;68.97;43.20;;;;;;;6.86;100.00;100913.17;125957;1098;101825;-80
2023/04/08 00:09:46;;;;;;;70.40;43.23;;;;;;;6.84;100.00;100914.00;125355;1098;103852;-79
2023/04/08 00:12:18;;;;;;;73.53;43.60;;;;;;;6.83;100.00;100912.20;125372;1099;103954;-79
2023/04/08 00:14:50;;;;;;;71.50;43.43;;;;;;;6.82;100.00;100907.81;125268;1099;101564;-81
2023/04/08 00:17:23;;;;;;;68.90;44.03;;;;;;;6.80;100.00;100913.73;126198;1098;101787;-80
2023/04/08 00:19:55;;;;;;;70.20;42.90;;;;;;;6.78;100.00;100916.26;125238;1098;101692;-79
2023/04/08 00:22:27;;;;;;;67.23;42.27;;;;;;;6.74;100.00;100914.27;125310;1099;101586;-79
2023/04/08 00:25:00;;;;;;;68.37;40.77;;;;;;;6.73;100.00;100916.80;125282;1099;101647;-79
2023/04/08 00:27:33;;;;;;;72.50;44.97;;;;;;;6.72;100.00;100912.41;125400;1099;102098;-79
2023/04/08 00:30:06;;;;;;;73.37;43.20;;;;;;;6.74;100.00;100913.38;125549;1099;103987;-79
2023/04/08 00:32:39;;;;;;;76.33;43.95;;;;;;;6.75;100.00;100909.98;125351;1099;101833;-79
2023/04/08 00:35:12;;;;;;;68.70;41.73;;;;;;;6.72;100.00;100915.02;125408;1099;101581;-79
2023/04/08 00:37:44;;;;;;;69.82;41.20;;;;;;;6.70;100.00;100919.22;125182;1099;101913;-79
2023/04/08 00:40:17;;;;;;;69.05;40.80;;;;;;;6.70;100.00;100914.00;125420;1099;103977;-79
2023/04/08 00:42:49;;;;;;;67.57;41.57;;;;;;;6.70;100.00;100917.53;125289;1099;103941;-79
2023/04/08 00:45:21;;;;;;;64.70;39.67;;;;;;;6.71;100.00;100916.70;125256;1099;104006;-79
2023/04/08 00:47:54;;;;;;;65.50;40.55;;;;;;;6.72;100.00;100917.63;125261;1098;101809;-78
2023/04/08 00:50:27;;;;;;;65.23;40.77;;;;;;;6.70;100.00;100912.32;124861;1099;104006;-78
2023/04/08 00:52:59;;;;;;;63.53;39.13;;;;;;;6.70;100.00;100920.14;126205;1098;101705;-78
2023/04/08 00:55:31;;;;;;;63.67;38.73;;;;;;;6.70;100.00;100914.93;125270;1098;103938;-77
2023/04/08 00:58:04;;;;;;;60.30;37.23;;;;;;;6.69;100.00;100918.34;126202;1098;101868;-77
2023/04/08 01:00:41;;;;;;;58.43;36.23;;;;;;;6.69;100.00;100922.66;125168;1099;104069;-78
2023/04/08 01:03:18;;;;;;;57.05;35.00;;;;;;;6.69;100.00;100925.27;125212;1099;104134;-79
2023/04/08 01:06:00;;;;;;;58.83;36.67;;;;;;;6.68;100.00;100928.67;125392;1099;103980;-80
2023/04/08 01:08:35;;;;;;;57.95;35.80;;;;;;;6.63;100.00;100926.69;126446;1098;104083;-79
2023/04/08 01:11:13;;;;;;;58.67;36.37;;;;;;;6.61;100.00;100928.31;125327;1099;101627;-79
2023/04/08 01:13:49;;;;;;;57.10;35.75;;;;;;;6.61;100.00;100933.53;125447;1099;104025;-79
2023/04/08 01:16:23;;;;;;;58.63;36.23;;;;;;;6.61;100.00;100932.65;125488;1099;104044;-79
2023/04/08 01:18:59;;;;;;;63.10;39.17;;;;;;;6.62;100.00;100926.60;125487;1099;101818;-79
2023/04/08 01:21:33;;;;;;;60.93;37.07;;;;;;;6.64;100.00;100935.44;125387;1099;102303;-79
2023/04/08 01:24:15;;;;;;;58.90;35.23;;;;;;;6.65;100.00;100934.60;125290;1099;104150;-79
2023/04/08 01:26:49;;;;;;;62.97;37.27;;;;;;;6.65;100.00;100932.92;124849;1099;101714;-79
2023/04/08 01:29:23;;;;;;;55.10;34.90;;;;;;;6.62;100.00;100929.20;125380;1099;103462;-79
2023/04/08 01:31:57;;;;;;;58.17;35.10;;;;;;;6.58;100.00;100935.08;125252;1099;104038;-79
2023/04/08 01:34:31;;;;;;;59.75;36.25;;;;;;;6.57;100.00;100935.88;125441;1099;101681;-79
2023/04/08 01:37:05;;;;;;;58.93;35.80;;;;;;;6.58;100.00;100937.69;126370;1098;101717;-79
2023/04/08 01:39:38;;;;;;;62.85;37.98;;;;;;;6.58;100.00;100935.08;125346;1099;103949;-79
2023/04/08 01:42:12;;;;;;;58.40;34.80;;;;;;;6.55;100.00;100943.61;124987;1099;103942;-79
2023/04/08 01:44:45;;;;;;;59.73;35.48;;;;;;;6.53;100.00;100936.48;125451;1099;103951;-79
2023/04/08 01:47:18;;;;;;;58.63;36.10;;;;;;;6.53;100.00;100945.23;125806;1099;101762;-79
2023/04/08 01:49:52;;;;;;;58.37;35.90;;;;;;;6.55;100.00;100942.72;125358;1099;101708;-79
2023/04/08 01:52:27;;;;;;;59.37;36.37;;;;;;;6.55;100.00;100947.93;125445;1099;104009;-79
2023/04/08 01:55:00;;;;;;;59.50;36.23;;;;;;;6.55;100.00;100940.11;125360;1099;104040;-80
2023/04/08 01:57:36;;;;;;;57.90;35.60;;;;;;;6.56;100.00;100941.88;124856;1099;104123;-80
2023/04/08 02:00:12;;;;;;;59.20;36.85;;;;;;;6.56;100.00;100939.27;124903;1099;104031;-80
2023/04/08 02:02:57;;;;;;;62.17;38.47;;;;;;;6.56;100.00;100934.98;124812;1099;103942;-80
2023/04/08 02:05:29;;;;;;;64.72;40.70;;;;;;;6.53;100.00;100937.41;125282;1099;104167;-80
2023/04/08 02:08:03;;;;;;;66.67;41.23;;;;;;;6.53;100.00;100944.31;125356;1099;101704;-80
2023/04/08 02:10:35;;;;;;;66.75;40.80;;;;;;;6.53;100.00;100949.52;124849;1099;104072;-79
2023/04/08 02:13:09;;;;;;;65.55;40.03;;;;;;;6.53;100.00;100946.92;126072;1099;103923;-79
2023/04/08 02:15:48;;;;;;;66.47;41.07;;;;;;;6.53;100.00;100949.52;125383;1099;103875;-79
2023/04/08 02:18:26;;;;;;;63.77;40.17;;;;;;;6.49;100.00;100938.02;125283;1099;103957;-79
2023/04/08 02:21:10;;;;;;;60.63;38.17;;;;;;;6.47;100.00;100945.76;125425;1099;101633;-79
2023/04/08 02:23:47;;;;;;;62.27;38.90;;;;;;;6.47;100.00;100942.27;125440;1098;101863;-79
2023/04/08 02:26:21;;;;;;;63.43;39.33;;;;;;;6.46;100.00;100946.55;125316;1099;104054;-79
2023/04/08 02:28:55;;;;;;;64.17;37.90;;;;;;;6.45;100.00;100944.78;126308;1098;101785;-78
2023/04/08 02:31:28;;;;;;;59.60;37.83;;;;;;;6.45;100.00;100956.89;125365;1099;101795;-79
2023/04/08 02:34:01;;;;;;;62.77;38.67;;;;;;;6.43;100.00;100948.98;125313;1099;111919;-79
2023/04/08 02:36:36;;;;;;;63.17;39.03;;;;;;;6.43;100.00;100948.09;125355;1099;103948;-79
2023/04/08 02:39:08;;;;;;;62.70;38.88;;;;;;;6.43;100.00;100953.30;124832;1099;104044;-80
2023/04/08 02:41:41;;;;;;;66.43;40.73;;;;;;;6.44;100.00;100949.90;125364;1099;104063;-78
2023/04/08 02:44:13;;;;;;;63.87;39.00;;;;;;;6.43;100.00;100953.30;125302;1099;101564;-78
2023/04/08 02:50:08;;;;;;;60.13;37.80;;;;;;;6.34;100.00;100953.64;125754;1102;101709;-79
2023/04/08 02:52:41;;;;;;;62.23;37.08;;;;;;;6.30;100.00;100952.56;125316;1098;104036;-79
2023/04/08 02:55:13;;;;;;;62.80;40.73;;;;;;;6.31;100.00;100961.31;125294;1099;102209;-79
2023/04/08 02:57:47;;;;;;;67.00;40.93;;;;;;;6.31;100.00;100958.70;125315;1099;101648;-79
2023/04/08 03:00:18;;;;;;;;;;;;;;;6.28;100.00;100962.02;125352;1099;103890;-79
2023/04/08 03:02:50;;;;;;;62.87;37.93;;;;;;;6.27;100.00;100967.13;126002;1098;104066;-81
2023/04/08 03:05:23;;;;;;;68.10;40.00;;;;;;;6.25;100.00;100966.15;125400;1099;101719;-79
2023/04/08 03:07:55;;;;;;;65.47;40.87;;;;;;;6.23;100.00;100966.05;125334;1099;102018;-78
2023/04/08 03:10:27;;;;;;;61.93;36.03;;;;;;;6.21;100.00;100961.55;125334;1099;104034;-78
2023/04/08 03:12:59;;;;;;;60.67;36.47;;;;;;;6.14;100.00;100964.58;126304;1098;103868;-79
2023/04/08 03:15:32;;;;;;;75.83;43.20;;;;;;;6.09;100.00;100967.82;125430;1099;102102;-79
2023/04/08 03:18:04;;;;;;;87.23;46.30;;;;;;;6.01;100.00;100969.03;125334;1099;104102;-79
2023/04/08 03:20:36;;;;;;;86.10;46.73;;;;;;;5.98;100.00;100967.95;125194;1099;103951;-78
2023/04/08 03:23:09;;;;;;;91.23;50.53;;;;;;;5.97;100.00;100972.28;125786;1098;104057;-79
2023/04/08 03:25:41;;;;;;;98.83;54.53;;;;;;;5.97;100.00;100972.28;125268;1099;103964;-79
2023/04/08 03:28:13;;;;;;;100.60;54.17;;;;;;;6.00;100.00;100977.67;126338;1098;104010;-79
2023/04/08 03:30:45;;;;;;;98.83;53.87;;;;;;;6.01;100.00;100971.64;125278;1099;103951;-79
2023/04/08 03:33:18;;;;;;;99.30;52.93;;;;;;;6.03;100.00;100976.94;125227;1099;101545;-79
2023/04/08 03:35:50;;;;;;;89.80;52.23;;;;;;;6.02;100.00;100976.05;125295;1099;101689;-79
2023/04/08 03:38:22;;;;;;;98.87;53.17;;;;;;;6.02;100.00;100978.66;125894;1098;103960;-81
2023/04/08 03:40:54;;;;;;;93.40;52.70;;;;;;;6.01;100.00;100987.27;124800;1099;104396;-80
2023/04/08 03:43:27;;;;;;;106.47;52.87;;;;;;;5.99;100.00;100985.39;125442;1099;101966;-80
2023/04/08 03:45:59;;;;;;;105.03;50.63;;;;;;;5.88;100.00;100984.70;125344;1098;103999;-79
2023/04/08 03:48:32;;;;;;;93.17;51.67;;;;;;;5.79;100.00;100992.82;125353;1099;103948;-82
2023/04/08 03:51:04;;;;;;;100.80;51.70;;;;;;;5.76;100.00;100988.34;124909;1099;101569;-81
2023/04/08 03:53:36;;;;;;;95.87;53.23;;;;;;;5.76;100.00;100985.73;125445;1098;104095;-80
2023/04/08 03:56:09;;;;;;;100.70;53.23;;;;;;;5.79;100.00;100990.22;124830;1099;104503;-80
2023/04/08 03:58:42;;;;;;;108.70;55.33;;;;;;;5.81;100.00;100990.31;125361;1099;104040;-80
2023/04/08 04:01:14;;;;;;;103.50;52.73;;;;;;;5.78;100.00;100985.84;124830;1099;103936;-81
2023/04/08 04:03:46;;;;;;;99.33;54.33;;;;;;;5.80;100.00;100991.11;125481;1098;102613;-81
2023/04/08 04:06:18;;;;;;;117.67;53.97;;;;;;;5.78;100.00;100992.73;124976;1099;104163;-81
2023/04/08 04:08:53;;;;;;;130.40;50.80;;;;;;;5.74;100.00;100992.53;125483;1099;104078;-80
2023/04/08 04:11:25;;;;;;;163.00;50.67;;;;;;;5.70;100.00;100987.95;124889;1099;104166;-80
2023/04/08 04:13:57;;;;;;;199.43;50.50;;;;;;;5.67;100.00;100992.05;125269;1099;104093;-79
2023/04/08 04:16:29;;;;;;;221.93;47.47;;;;;;;5.64;100.00;100995.38;125215;1099;104032;-79
2023/04/08 04:19:02;;;;;;;247.60;44.93;;;;;;;5.61;100.00;100992.58;125384;1099;103964;-79
2023/04/08 04:21:34;;;;;;;176.40;46.23;;;;;;;5.65;100.00;101001.47;124935;1099;103945;-83
2023/04/08 04:24:07;;;;;;;172.67;44.43;;;;;;;5.70;100.00;101000.05;125017;1099;103531;-81
2023/04/08 04:26:40;;;;;;;220.63;42.23;;;;;;;5.67;100.00;101003.38;125489;1098;104003;-80
2023/04/08 04:29:12;;;;;;;199.27;42.87;;;;;;;5.64;100.00;101004.87;125375;1099;102010;-81
2023/04/08 04:31:44;;;;;;;200.70;42.47;;;;;;;5.63;100.00;101005.70;125510;1099;104037;-81
2023/04/08 04:34:17;;;;;;;214.27;43.50;;;;;;;5.62;100.00;101014.30;124907;1102;101844;-82
2023/04/08 04:36:49;;;;;;;228.83;41.60;;;;;;;5.63;100.00;101016.11;125386;1099;103983;-81
2023/04/08 04:39:21;;;;;;;214.70;42.70;;;;;;;5.64;100.00;101017.89;124940;1101;103963;-84
2023/04/08 04:41:54;;;;;;;203.67;41.80;;;;;;;5.66;100.00;101018.91;125374;1098;102980;-83
2023/04/08 04:44:26;;;;;;;210.23;42.20;;;;;;;5.68;100.00;101025.99;125375;1099;103202;-84
2023/04/08 04:46:58;;;;;;;151.95;40.75;;;;;;;5.71;100.00;101028.80;126153;1099;104075;-81
2023/04/08 04:49:30;;;;;;;205.30;40.67;;;;;;;5.76;100.00;101035.22;125566;1099;104073;-82
2023/04/08 04:52:03;;;;;;;338.93;44.80;;;;;;;5.82;100.00;101041.61;125175;1099;101871;-85
2023/04/08 04:54:35;;;;;;;275.13;42.10;;;;;;;5.81;100.00;101037.19;125411;1099;101894;-84
2023/04/08 04:57:07;;;;;;;181.47;40.73;;;;;;;5.86;100.00;101040.98;125792;1099;101733;-82
2023/04/08 04:59:39;;;;;;;302.63;42.03;;;;;;;5.87;100.00;101042.79;125603;1099;101831;-82
2023/04/08 05:02:12;;;;;;;201.77;42.57;;;;;;;5.88;100.00;101045.48;125490;1099;101614;-85
2023/04/08 05:04:44;;;;;;;237.13;41.73;;;;;;;5.94;100.00;101043.27;124986;1099;104009;-83
2023/04/08 05:07:16;;;;;;;271.77;45.00;;;;;;;5.99;100.00;101042.70;126157;1099;101617;-84
2023/04/08 05:09:48;;;;;;;230.13;43.73;;;;;;;6.04;100.00;101041.28;126091;1099;101590;-85
2023/04/08 05:12:21;;;;;;;212.73;42.47;;;;;;;6.09;100.00;101045.06;126113;1099;101773;-83
2023/04/08 05:14:53;;;;;;;213.70;45.57;;;;;;;6.13;100.00;101040.97;126114;1099;103904;-83
2023/04/08 05:17:25;;;;;;;333.77;44.10;;;;;;;6.18;100.00;101048.24;126089;1099;103037;-83
2023/04/08 05:19:57;;;;;;;192.83;41.60;;;;;;;6.20;100.00;101046.66;126057;1099;101545;-82
2023/04/08 05:22:29;;;;;;;172.60;41.17;;;;;;;6.21;100.00;101039.73;126160;1099;103114;-82
2023/04/08 05:25:02;;;;;;;257.93;41.43;;;;;;;6.21;100.00;101044.94;126134;1099;102077;-82
2023/04/08 05:27:34;;;;;;;375.53;43.90;;;;;;;6.26;100.00;101048.72;125419;1098;104083;-83
2023/04/08 05:30:08;;;;;;;402.07;44.40;;;;;;;6.29;100.00;101052.44;126158;1099;104003;-83
2023/04/08 05:32:41;;;;;;;175.43;42.97;;;;;;;6.38;100.00;101048.59;126096;1099;104006;-81
2023/04/08 05:35:13;;;;;;;245.27;42.23;;;;;;;6.44;100.00;101048.97;125438;1099;104095;-81
2023/04/08 05:37:45;;;;;;;216.83;43.57;;;;;;;6.52;100.00;101049.44;125509;1099;101800;-80
2023/04/08 05:40:18;;;;;;;140.93;41.83;;;;;;;6.62;100.00;101049.16;125557;1099;103875;-83
2023/04/08 05:42:50;;;;;;;145.15;40.70;;;;;;;6.65;100.00;101049.34;125492;1098;104012;-79
2023/04/08 05:45:22;;;;;;;210.77;40.40;;;;;;;6.64;100.00;101056.28;125482;1099;103977;-81
2023/04/08 05:47:55;;;;;;;182.90;40.55;;;;;;;6.65;100.00;101045.05;125455;1099;101968;-83
2023/04/08 05:50:27;;;;;;;169.53;38.07;;;;;;;6.71;100.00;101054.93;124962;1099;104033;-81
2023/04/08 05:52:59;;;;;;;122.30;39.37;;;;;;;6.73;100.00;101057.63;125472;1099;103948;-80
2023/04/08 05:55:31;;;;;;;130.07;38.23;;;;;;;6.75;100.00;101056.04;125338;1098;101622;-80
2023/04/08 05:58:04;;;;;;;113.70;36.60;;;;;;;6.79;100.00;101060.61;124826;1099;104031;-80
2023/04/08 06:00:36;;;;;;;147.95;38.50;;;;;;;6.81;100.00;101061.63;125343;1099;101564;-79
2023/04/08 06:03:08;;;;;;;131.53;37.80;;;;;;;6.82;100.00;101059.11;124901;1099;104015;-81
2023/04/08 06:05:40;;;;;;;90.23;36.97;;;;;;;6.88;100.00;101068.09;125430;1099;103961;-78
2023/04/08 06:08:13;;;;;;;136.17;37.33;;;;;;;6.90;100.00;101067.36;125446;1099;101647;-78
2023/04/08 06:10:51;;;;;;;162.77;41.30;;;;;;;6.98;100.00;101062.59;125253;1099;101600;-79
2023/04/08 06:13:24;;;;;;;75.30;39.03;;;;;;;7.04;100.00;101059.46;125371;1098;104009;-79
2023/04/08 06:15:57;;;;;;;102.53;40.07;;;;;;;7.05;100.00;101063.88;125518;1099;102502;-83
2023/04/08 06:18:29;;;;;;;82.73;40.57;;;;;;;7.11;100.00;101059.02;125540;1099;104006;-80
2023/04/08 06:21:01;;;;;;;88.57;40.23;;;;;;;7.12;100.00;101060.80;125490;1099;103945;-80
2023/04/08 06:23:34;;;;;;;124.50;40.73;;;;;;;7.13;100.00;101060.00;125430;1099;103996;-82
2023/04/08 06:26:06;;;;;;;83.40;41.00;;;;;;;7.19;100.00;101070.80;125555;1099;104046;-81
2023/04/08 06:28:39;;;;;;;93.03;41.43;;;;;;;7.28;100.00;101071.34;125390;1099;104108;-81
2023/04/08 06:31:11;;;;;;;92.47;42.03;;;;;;;7.37;100.00;101070.98;125401;1099;101879;-80
2023/04/08 06:33:43;;;;;;;92.27;39.80;;;;;;;7.44;100.00;101080.95;125461;1099;101596;-82
2023/04/08 06:36:16;;;;;;;134.43;44.10;;;;;;;7.50;100.00;101076.08;125518;1099;103958;-81
2023/04/08 06:38:48;;;;;;;104.33;43.97;;;;;;;7.57;100.00;101082.55;125414;1099;104053;-81
2023/04/08 06:41:20;;;;;;;84.10;43.60;;;;;;;7.63;100.00;101076.78;125531;1099;101724;-81
2023/04/08 06:43:54;;;;;;;82.27;44.08;;;;;;;7.71;100.00;101075.49;124950;1099;103846;-80
2023/04/08 06:46:26;;;;;;;85.40;45.43;;;;;;;7.80;100.00;101068.17;125494;1098;101958;-81
2023/04/08 06:48:58;;;;;;;79.73;44.53;;;;;;;7.85;100.00;101068.43;125435;1099;103942;-83
2023/04/08 06:51:31;;;;;;;89.57;47.60;;;;;;;7.89;100.00;101081.75;125577;1099;102950;-84
2023/04/08 06:54:03;;;;;;;84.43;44.17;;;;;;;7.98;100.00;101076.15;125517;1099;103999;-79
2023/04/08 06:56:36;;;;;;;83.33;44.87;;;;;;;8.06;100.00;101074.84;125061;1099;104022;-80
2023/04/08 06:59:09;;;;;;;86.57;47.15;;;;;;;8.17;100.00;101078.05;124985;1099;103961;-83
2023/04/08 07:01:41;;;;;;;80.67;43.70;;;;;;;8.26;100.00;101069.82;125459;1099;104009;-82
2023/04/08 07:04:13;;;;;;;79.40;44.57;;;;;;;8.36;100.00;101074.71;125548;1099;101879;-82
2023/04/08 07:06:45;;;;;;;77.13;42.67;;;;;;;8.46;100.00;101083.97;125039;1099;103986;-82
2023/04/08 07:09:18;;;;;;;74.53;43.37;;;;;;;8.55;100.00;101084.46;125301;1099;104143;-81
2023/04/08 07:11:54;;;;;;;77.00;45.37;;;;;;;8.66;100.00;101089.38;125473;1099;103945;-80
2023/04/08 07:14:34;;;;;;;83.07;45.20;;;;;;;8.78;100.00;101090.03;125495;1099;103945;-80
2023/04/08 07:17:07;;;;;;;80.83;45.43;;;;;;;8.90;100.00;101095.90;125121;1099;103547;-80
2023/04/08 07:19:40;;;;;;;77.10;43.40;;;;;;;9.07;100.00;101098.47;125524;1099;103970;-78
2023/04/08 07:22:12;;;;;;;73.10;42.97;;;;;;;9.24;100.00;101091.48;124956;1099;103152;-81
2023/04/08 07:24:48;;;;;;;68.20;42.57;;;;;;;9.37;100.00;101096.52;125585;1099;104006;-79
2023/04/08 07:27:20;;;;;;;71.83;42.50;;;;;;;9.53;100.00;101090.31;125423;1099;103941;-79
2023/04/08 07:29:56;;;;;;;67.33;41.60;;;;;;;9.67;100.00;101091.88;125435;1099;101692;-79
2023/04/08 07:32:29;;;;;;;71.70;42.47;;;;;;;9.81;100.00;101092.55;125647;1099;104043;-79
2023/04/08 07:35:02;;;;;;;52.40;34.20;;;;;;;9.97;100.00;101090.67;125435;1098;104055;-77
2023/04/08 07:37:34;;;;;;;55.63;34.93;;;;;;;10.11;100.00;101099.19;125485;1099;101561;-79
2023/04/08 07:40:09;;;;;;;42.17;27.93;;;;;;;10.27;100.00;101101.72;124908;1099;102013;-79
2023/04/08 07:42:41;;;;;;;43.87;27.57;;;;;;;10.42;100.00;101093.67;125613;1098;101771;-79
2023/04/08 07:45:14;;;;;;;49.60;29.73;;;;;;;10.56;100.00;101091.68;125500;1099;101756;-78
2023/04/08 07:47:47;;;;;;;46.37;29.37;;;;;;;10.67;100.00;101087.80;124867;1099;103942;-80
2023/04/08 07:50:21;;;;;;;37.40;24.03;;;;;;;10.80;100.00;101086.64;124977;1099;103952;-80
2023/04/08 07:52:52;;;;;;;;;;;;;;;10.90;89.40;101093.19;125058;1099;103999;-79
2023/04/08 07:55:24;;;;;;;34.23;22.23;;;;;;;10.98;95.05;101078.65;125404;1098;101770;-78
2023/04/08 07:57:57;;;;;;;41.00;25.37;;;;;;;11.07;100.00;101080.79;125555;1099;104166;-80
2023/04/08 08:00:30;;;;;;;33.43;21.47;;;;;;;11.05;100.00;101077.21;125461;1099;101712;-78
2023/04/08 08:03:02;;;;;;;29.10;17.25;;;;;;;11.06;92.08;101087.75;124928;1099;101835;-80
2023/04/08 08:05:35;;;;;;;29.50;17.73;;;;;;;11.23;94.78;101079.70;125481;1099;104025;-79
2023/04/08 08:08:10;;;;;;;17.65;10.58;;;;;;;11.27;94.23;101084.27;125508;1098;104034;-78
2023/04/08 08:10:42;;;;;;;26.80;17.17;;;;;;;11.30;97.31;101079.14;125660;1098;101824;-81
2023/04/08 08:13:17;;;;;;;27.17;16.80;;;;;;;11.31;98.82;101073.03;125064;1099;102283;-80
2023/04/08 08:15:53;;;;;;;29.30;16.57;;;;;;;11.38;97.11;101075.09;125047;1099;104066;-79
2023/04/08 08:18:26;;;;;;;28.67;18.60;;;;;;;11.44;99.48;101069.20;125685;1099;103977;-79
2023/04/08 08:20:58;;;;;;;29.23;18.13;;;;;;;11.47;99.96;101070.22;124930;1099;102269;-79
2023/04/08 08:23:30;;;;;;;25.43;15.83;;;;;;;11.51;100.00;101072.16;125062;1099;104436;-79
2023/04/08 08:26:05;;;;;;;25.57;16.37;;;;;;;11.56;98.80;101068.80;125629;1099;101817;-82
2023/04/08 08:28:37;;;;;;;27.70;16.20;;;;;;;11.63;100.00;101068.22;125510;1098;102015;-79
2023/04/08 08:31:09;;;;;;;24.27;15.30;;;;;;;11.65;92.55;101069.17;125495;1099;103986;-79
2023/04/08 08:33:42;;;;;;;26.40;17.10;;;;;;;11.71;94.60;101077.30;125515;1099;104037;-79
2023/04/08 08:36:14;;;;;;;25.07;15.87;;;;;;;11.75;96.59;101071.34;125584;1099;104051;-79
2023/04/08 08:38:47;;;;;;;29.63;16.77;;;;;;;11.81;97.83;101078.56;125002;1102;102004;-80
2023/04/08 08:41:20;;;;;;;25.10;16.03;;;;;;;11.80;94.81;101075.05;125652;1099;103948;-82
2023/04/08 08:43:54;;;;;;;25.13;15.80;;;;;;;11.75;95.96;101076.60;125789;1099;102047;-79
2023/04/08 08:46:27;;;;;;;24.77;14.77;;;;;;;11.65;87.73;101077.05;125068;1099;103948;-78
2023/04/08 08:49:00;;;;;;;26.93;16.10;;;;;;;11.66;92.66;101071.86;125636;1099;102095;-80
2023/04/08 08:51:33;;;;;;;24.47;14.67;;;;;;;11.60;92.94;101075.98;125005;1102;101914;-80
2023/04/08 08:54:05;;;;;;;25.45;15.03;;;;;;;11.65;95.50;101074.42;126285;1099;104016;-78
2023/04/08 08:56:38;;;;;;;26.90;15.97;;;;;;;11.66;94.10;101076.23;126685;1098;101561;-78
2023/04/08 08:59:10;;;;;;;27.03;16.17;;;;;;;11.65;94.63;101075.31;125699;1099;103977;-78
2023/04/08 09:01:42;;;;;;;25.17;15.80;;;;;;;11.77;95.40;101077.55;125023;1099;103415;-80
2023/04/08 09:04:17;;;;;;;25.33;15.07;;;;;;;11.81;95.36;101082.11;125344;1099;102127;-79
2023/04/08 09:06:51;;;;;;;25.03;15.67;;;;;;;11.88;95.49;101076.23;125576;1099;104073;-80
2023/04/08 09:09:25;;;;;;;25.70;15.40;;;;;;;11.95;92.17;101079.14;125246;1099;103945;-81
2023/04/08 09:12:05;;;;;;;25.07;15.43;;;;;;;11.97;95.01;101070.48;125529;1099;101640;-80
2023/04/08 09:14:37;;;;;;;24.90;15.17;;;;;;;12.06;94.72;101072.59;125166;1099;101897;-81
2023/04/08 09:17:09;;;;;;;23.70;14.50;;;;;;;12.08;91.04;101070.91;125670;1099;103960;-83
2023/04/08 09:20:02;;;;;;;24.40;14.50;;;;;;;12.07;89.44;101070.84;125543;1099;101700;-81
2023/04/08 09:22:34;;;;;;;23.33;14.30;;;;;;;12.13;90.78;101071.97;125519;1099;112317;-81
2023/04/08 09:25:25;;;;;;;29.93;15.27;;;;;;;12.21;92.29;101070.52;125653;1099;103049;-80
2023/04/08 09:27:57;;;;;;;40.13;16.97;;;;;;;12.37;93.58;101066.75;125448;1098;104050;-80
2023/04/08 09:30:32;;;;;;;66.77;18.00;;;;;;;12.49;93.98;101062.78;125288;1099;104149;-77
2023/04/08 09:33:06;;;;;;;26.80;15.50;;;;;;;12.61;92.90;101057.96;125477;1099;101968;-78
2023/04/08 09:35:38;;;;;;;24.07;15.45;;;;;;;12.88;93.73;101057.15;125702;1099;102223;-80
2023/04/08 09:38:11;;;;;;;23.57;13.83;;;;;;;13.01;90.84;101055.83;125628;1099;103968;-80
2023/04/08 09:40:45;;;;;;;25.07;14.70;;;;;;;12.97;88.33;101059.22;125324;1099;104065;-81
2023/04/08 09:43:19;;;;;;;;;;;;;;;12.93;88.24;101061.75;125167;1099;107054;-82
2023/04/08 09:45:52;;;;;;;28.62;15.05;;;;;;;13.07;90.95;101056.05;125948;1099;101704;-80
2023/04/08 09:48:28;;;;;;;23.03;14.30;;;;;;;13.26;90.51;101054.92;126015;1099;103967;-79
2023/04/08 09:51:01;;;;;;;25.50;14.70;;;;;;;13.27;91.53;101057.61;125614;1099;104083;-78
2023/04/08 09:53:38;;;;;;;25.68;14.90;;;;;;;13.34;90.58;101055.22;126007;1097;117666;-80
2023/04/08 09:56:12;;;;;;;25.83;14.97;;;;;;;13.53;88.79;101052.35;125898;1098;101595;-79
2023/04/08 09:58:51;;;;;;;28.33;15.03;;;;;;;13.64;90.26;101055.34;125295;1099;102050;-80
2023/04/08 10:01:28;;;;;;;22.00;13.57;;;;;;;13.67;89.33;101060.70;125700;1098;101904;-81
2023/04/08 10:04:05;;;;;;;24.20;14.70;;;;;;;13.61;88.22;101053.48;125359;1099;103942;-80
2023/04/08 10:06:38;;;;;;;23.27;14.23;;;;;;;13.60;89.22;101050.80;125563;1099;101743;-78
2023/04/08 10:09:11;;;;;;;25.92;15.15;;;;;;;13.63;89.28;101049.18;125637;1099;101853;-80
2023/04/08 10:11:43;;;;;;;23.27;14.10;;;;;;;13.65;89.21;101050.11;125626;1099;102008;-80
2023/04/08 10:14:16;;;;;;;23.90;15.23;;;;;;;13.67;89.91;101052.80;125754;1099;102086;-80
2023/04/08 10:16:49;;;;;;;24.83;15.10;;;;;;;13.74;88.95;101059.16;125871;1099;101593;-77
2023/04/08 10:19:40;;;;;;;23.67;14.63;;;;;;;13.73;88.87;101054.72;125901;1099;101895;-78
2023/04/08 10:22:48;;;;;;;23.90;13.73;;;;;;;13.77;88.40;101060.13;125818;1099;101705;-80
2023/04/08 10:25:32;;;;;;;24.20;14.60;;;;;;;13.79;88.95;101062.82;126064;1099;103999;-83
2023/04/08 10:28:28;;;;;;;24.02;14.33;;;;;;;13.76;88.51;101057.45;125976;1099;102067;-80
2023/04/08 10:31:01;;;;;;;24.93;14.50;;;;;;;13.68;86.75;101057.23;126015;1099;101670;-78
2023/04/08 10:33:37;;;;;;;23.13;14.13;;;;;;;13.64;86.83;101052.70;126018;1099;102641;-77
2023/04/08 10:36:14;;;;;;;23.03;14.60;;;;;;;13.69;87.28;101051.09;127383;1098;101361;-78
2023/04/08 10:38:46;;;;;;;23.20;14.50;;;;;;;13.76;86.73;101054.81;126167;1099;104047;-78
2023/04/08 10:41:25;;;;;;;25.10;15.07;;;;;;;13.86;86.44;101048.98;125229;1099;104054;-78
2023/04/08 10:43:58;;;;;;;23.00;14.13;;;;;;;13.97;86.47;101055.48;125664;1099;101830;-82
2023/04/08 10:46:37;;;;;;;23.57;15.33;;;;;;;14.09;85.81;101046.17;126655;1099;101820;-80
2023/04/08 10:49:09;;;;;;;22.47;14.37;;;;;;;14.22;84.20;101048.31;125880;1099;101808;-81
2023/04/08 10:51:43;;;;;;;21.97;13.43;;;;;;;14.27;83.74;101037.89;125805;1098;103007;-81
2023/04/08 10:54:17;;;;;;;23.65;14.63;;;;;;;14.48;85.26;101029.70;125395;1099;102007;-79
2023/04/08 10:56:51;;;;;;;24.10;14.68;;;;;;;14.56;82.77;101023.77;125681;1099;102199;-82
2023/04/08 10:59:32;;;;;;;23.23;14.43;;;;;;;14.49;79.31;101028.83;125935;1099;104039;-79
2023/04/08 11:02:04;;;;;;;22.17;14.13;;;;;;;14.60;80.85;101024.80;125825;1099;103942;-79
2023/04/08 11:04:43;;;;;;;22.03;13.63;;;;;;;14.74;80.50;101020.78;125747;1099;101862;-79
2023/04/08 11:07:16;;;;;;;22.40;13.87;;;;;;;14.71;79.37;101017.17;125479;1099;102938;-81
2023/04/08 11:09:49;;;;;;;20.33;12.80;;;;;;;14.84;81.69;101024.55;125848;1099;101889;-83
2023/04/08 11:12:24;;;;;;;20.17;12.15;;;;;;;14.93;80.95;101015.98;125662;1099;104037;-81
2023/04/08 11:14:57;;;;;;;20.43;11.60;;;;;;;14.79;78.73;101012.98;125518;1099;103820;-81
2023/04/08 11:17:30;;;;;;;20.75;13.03;;;;;;;14.65;78.45;101017.89;125489;1099;102081;-80
2023/04/08 11:20:05;;;;;;;25.33;14.50;;;;;;;14.59;76.46;101020.33;125798;1099;103948;-80
2023/04/08 11:22:37;;;;;;;20.90;13.57;;;;;;;14.42;67.41;101027.77;125533;1099;102134;-81
2023/04/08 11:25:11;;;;;;;21.97;13.57;;;;;;;14.30;72.39;101023.02;125725;1099;117849;-82